createdAt,value
2018-04-16T00:01:41.190Z,18.00
2018-04-16T00:06:43.274Z,17.70
2018-04-16T00:11:44.594Z,18.93
2018-04-16T00:16:46.650Z,18.63
2018-04-16T00:21:47.983Z,16.10
2018-04-16T00:26:50.061Z,18.53
2018-04-16T00:31:57.616Z,19.57
2018-04-16T00:37:05.661Z,18.77
2018-04-16T00:42:13.939Z,16.00
2018-04-16T00:47:21.409Z,16.80
2018-04-16T00:52:28.618Z,17.00
2018-04-16T00:57:36.106Z,20.20
2018-04-16T01:02:43.498Z,18.17
2018-04-16T01:07:50.745Z,18.97
2018-04-16T01:12:58.162Z,16.93
2018-04-16T01:18:05.628Z,18.60
2018-04-16T01:23:13.041Z,18.00
2018-04-16T01:28:20.569Z,17.83
2018-04-16T01:33:28.009Z,18.00
2018-04-16T01:38:35.393Z,17.80
2018-04-16T01:43:42.774Z,18.00
2018-04-16T01:54:35.232Z,16.50
2018-04-16T01:59:42.743Z,17.47
2018-04-16T02:04:50.226Z,17.00
2018-04-16T02:09:58.440Z,18.33
2018-04-16T02:15:05.786Z,16.73
2018-04-16T02:20:13.118Z,15.33
2018-04-16T02:25:20.469Z,14.67
2018-04-16T02:30:28.630Z,13.60
2018-04-16T02:35:36.618Z,13.30
2018-04-16T02:40:44.030Z,13.53
2018-04-16T02:45:51.359Z,14.50
2018-04-16T02:50:58.768Z,15.73
2018-04-16T02:56:06.858Z,12.93
2018-04-16T03:01:14.234Z,12.53
2018-04-16T03:06:21.799Z,14.07
2018-04-16T03:11:29.081Z,14.40
2018-04-16T03:16:36.581Z,15.67
2018-04-16T03:21:43.942Z,15.60
2018-04-16T03:26:51.375Z,17.83
2018-04-16T03:31:58.685Z,15.40
2018-04-16T03:37:06.157Z,15.60
2018-04-16T03:42:13.527Z,14.23
2018-04-16T03:47:21.001Z,14.17
2018-04-16T03:52:28.350Z,14.10
2018-04-16T03:57:29.669Z,14.30
2018-04-16T04:02:31.738Z,14.20
2018-04-16T04:07:33.029Z,14.50
2018-04-16T04:12:34.340Z,15.70
2018-04-16T04:17:36.393Z,15.10
2018-04-16T04:22:56.117Z,16.90
2018-04-16T04:28:16.117Z,15.20
2018-04-16T04:33:17.431Z,15.03
2018-04-16T04:38:18.747Z,15.60
2018-04-16T04:43:20.048Z,16.73
2018-04-16T04:48:21.361Z,15.73
2018-04-16T04:53:23.405Z,15.80
2018-04-16T04:58:24.744Z,15.23
2018-04-16T05:03:26.821Z,14.77
2018-04-16T05:08:28.138Z,15.23
2018-04-16T05:13:29.422Z,16.13
2018-04-16T05:18:31.485Z,17.10
2018-04-16T05:23:32.832Z,13.70
2018-04-16T05:28:34.894Z,16.20
2018-04-16T05:33:36.216Z,17.37
2018-04-16T05:38:37.523Z,18.73
2018-04-16T05:43:39.592Z,15.47
2018-04-16T05:48:40.906Z,17.47
2018-04-16T05:53:42.957Z,17.30
2018-04-16T05:58:44.267Z,19.77
2018-04-16T06:03:45.594Z,21.03
2018-04-16T06:08:47.653Z,22.40
2018-04-16T06:13:48.974Z,22.77
2018-04-16T06:18:50.303Z,23.53
2018-04-16T06:23:51.614Z,24.20
2018-04-16T06:28:52.926Z,22.60
2018-04-16T06:33:54.221Z,22.77
2018-04-16T06:38:55.530Z,24.37
2018-04-16T06:43:57.585Z,26.00
2018-04-16T06:48:58.925Z,27.53
2018-04-16T06:54:00.953Z,24.57
2018-04-16T06:59:02.304Z,27.03
2018-04-16T07:04:03.655Z,28.70
2018-04-16T07:09:05.761Z,28.07
2018-04-16T07:14:07.082Z,27.10
2018-04-16T07:19:08.429Z,26.37
2018-04-16T07:24:09.734Z,28.43
2018-04-16T07:29:11.053Z,29.57
2018-04-16T07:34:12.350Z,24.93
2018-04-16T07:39:14.411Z,23.70
2018-04-16T07:44:15.718Z,23.13
2018-04-16T07:49:17.033Z,22.73
2018-04-16T07:54:18.327Z,22.30
2018-04-16T07:59:19.618Z,25.93
2018-04-16T08:04:21.671Z,25.40
2018-04-16T08:09:22.968Z,22.57
2018-04-16T08:14:24.288Z,15.70
2018-04-16T08:19:26.350Z,14.90
2018-04-16T08:24:27.807Z,15.70
2018-04-16T08:29:29.118Z,14.97
2018-04-16T08:34:30.409Z,14.10
2018-04-16T08:39:31.733Z,14.63
2018-04-16T08:44:33.029Z,15.20
2018-04-16T08:49:34.330Z,15.20
2018-04-16T08:54:35.665Z,14.80
2018-04-16T08:59:36.979Z,14.00
2018-04-16T09:04:38.310Z,11.90
2018-04-16T09:09:40.382Z,12.70
2018-04-16T09:14:41.734Z,12.57
2018-04-16T09:19:43.041Z,11.87
2018-04-16T09:24:44.347Z,12.30
2018-04-16T09:29:45.650Z,10.67
2018-04-16T09:34:46.968Z,10.90
2018-04-16T09:39:48.318Z,11.87
2018-04-16T09:44:49.611Z,12.10
2018-04-16T09:49:50.918Z,11.93
2018-04-16T09:54:52.219Z,10.80
2018-04-16T09:59:54.261Z,11.67
2018-04-16T10:04:55.563Z,13.27
2018-04-16T10:09:57.037Z,14.40
2018-04-16T10:14:58.357Z,14.57
2018-04-16T10:19:59.688Z,14.30
2018-04-16T10:25:01.804Z,16.30
2018-04-16T10:30:03.859Z,14.93
2018-04-16T10:35:06.184Z,14.33
2018-04-16T10:40:08.289Z,14.47
2018-04-16T10:45:09.634Z,16.00
2018-04-16T10:50:10.991Z,14.93
2018-04-16T10:55:12.319Z,15.47
2018-04-16T11:00:13.646Z,14.70
2018-04-16T11:05:14.984Z,17.00
2018-04-16T11:10:16.318Z,15.57
2018-04-16T11:15:17.655Z,15.47
2018-04-16T11:20:19.740Z,16.00
2018-04-16T11:25:21.053Z,14.00
2018-04-16T11:30:23.137Z,15.97
2018-04-16T11:35:24.462Z,13.47
2018-04-16T11:40:25.762Z,11.40
2018-04-16T11:45:27.069Z,12.70
2018-04-16T11:50:28.394Z,11.67
2018-04-16T11:55:29.730Z,12.10
2018-04-16T12:00:31.068Z,12.53
2018-04-16T12:05:32.378Z,12.20
2018-04-16T12:10:34.438Z,11.83
2018-04-16T12:15:35.753Z,11.50
2018-04-16T12:20:37.087Z,12.00
2018-04-16T12:25:38.439Z,14.03
2018-04-16T12:30:39.762Z,15.63
2018-04-16T12:35:41.087Z,15.63
2018-04-16T12:40:42.418Z,16.20
2018-04-16T12:45:44.508Z,17.20
2018-04-16T12:50:45.861Z,17.50
2018-04-16T12:55:47.177Z,17.97
2018-04-16T13:00:48.510Z,17.77
2018-04-16T13:05:49.841Z,13.47
2018-04-16T13:10:51.151Z,13.07
2018-04-16T13:15:52.470Z,12.80
2018-04-16T13:20:54.511Z,12.60
2018-04-16T13:25:55.842Z,14.23
2018-04-16T13:30:57.180Z,13.13
2018-04-16T13:35:58.518Z,11.17
2018-04-16T13:40:59.836Z,8.93
2018-04-16T13:46:01.895Z,10.60
2018-04-16T13:51:03.277Z,10.40
2018-04-16T13:56:04.626Z,10.40
2018-04-16T14:01:05.937Z,10.40
2018-04-16T14:06:07.254Z,12.20
2018-04-16T14:11:08.617Z,12.90
2018-04-16T14:16:09.960Z,13.70
2018-04-16T14:21:11.281Z,13.20
2018-04-16T14:26:12.606Z,12.67
2018-04-16T14:31:13.924Z,12.23
2018-04-16T14:36:15.234Z,10.10
2018-04-16T14:41:17.317Z,10.00
2018-04-16T14:46:18.689Z,9.33
2018-04-16T14:51:20.061Z,9.43
2018-04-16T14:56:21.382Z,8.17
2018-04-16T15:01:22.727Z,7.60
2018-04-16T15:06:24.077Z,7.93
2018-04-16T15:11:26.166Z,6.97
2018-04-16T15:16:27.485Z,7.17
2018-04-16T15:21:29.539Z,7.67
2018-04-16T15:26:30.855Z,7.00
2018-04-16T15:31:32.166Z,6.53
2018-04-16T15:36:34.217Z,5.73
2018-04-16T15:41:35.517Z,5.87
2018-04-16T15:46:36.840Z,5.77
2018-04-16T15:51:38.171Z,5.40
2018-04-16T15:56:39.486Z,6.20
2018-04-16T16:01:40.798Z,5.17
2018-04-16T16:06:42.105Z,4.50
2018-04-16T16:11:44.294Z,4.50
2018-04-16T16:16:45.592Z,4.50
2018-04-16T16:21:47.665Z,5.00
2018-04-16T16:26:48.985Z,5.50
2018-04-16T16:31:50.377Z,4.70
2018-04-16T16:36:51.692Z,5.50
2018-04-16T16:41:53.030Z,6.00
2018-04-16T16:46:54.341Z,5.53
2018-04-16T16:51:55.671Z,6.10
2018-04-16T16:56:56.994Z,5.83
2018-04-16T17:01:58.327Z,6.10
2018-04-16T17:07:00.405Z,5.90
2018-04-16T17:12:01.721Z,6.50
2018-04-16T17:17:03.770Z,4.67
2018-04-16T17:22:05.103Z,6.10
2018-04-16T17:27:07.162Z,6.97
2018-04-16T17:32:08.514Z,6.73
2018-04-16T17:37:09.856Z,7.30
2018-04-16T17:42:11.198Z,8.20
2018-04-16T17:47:12.527Z,8.77
2018-04-16T17:52:14.000Z,8.80
2018-04-16T17:57:15.317Z,8.33
2018-04-16T18:02:16.622Z,9.00
2018-04-16T18:07:18.695Z,8.60
2018-04-16T18:12:20.025Z,8.70
2018-04-16T18:17:21.359Z,7.70
2018-04-16T18:22:22.689Z,7.73
2018-04-16T18:27:24.095Z,7.53
2018-04-16T18:32:25.456Z,8.60
2018-04-16T18:37:26.786Z,7.60
2018-04-16T18:42:28.869Z,8.33
2018-04-16T18:47:30.229Z,8.17
2018-04-16T18:52:31.594Z,8.03
2018-04-16T18:57:32.965Z,7.90
2018-04-16T19:02:35.025Z,7.73
2018-04-16T19:07:36.422Z,8.40
2018-04-16T19:12:39.140Z,7.23
2018-04-16T19:17:47.018Z,7.30
2018-04-16T19:22:48.633Z,7.30
2018-04-16T19:33:34.069Z,9.43
2018-04-16T19:38:35.411Z,9.70
2018-04-16T19:43:37.531Z,10.07
2018-04-16T19:48:44.931Z,11.23
2018-04-16T19:53:46.293Z,11.07
2018-04-16T19:58:47.610Z,12.73
2018-04-16T20:03:55.756Z,13.20
2018-04-16T20:08:57.049Z,13.00
2018-04-16T20:13:58.380Z,13.47
2018-04-16T20:18:59.673Z,14.03
2018-04-16T20:24:00.962Z,14.10
2018-04-16T20:29:02.335Z,14.40
2018-04-16T20:34:03.672Z,14.37
2018-04-16T20:39:05.026Z,13.77
2018-04-16T20:44:06.430Z,14.37
2018-04-16T20:49:07.769Z,14.03
2018-04-16T20:54:09.126Z,12.30
2018-04-16T20:59:10.450Z,11.33
2018-04-16T21:04:12.510Z,11.27
2018-04-16T21:09:13.850Z,11.27
2018-04-16T21:14:15.153Z,11.37
2018-04-16T21:19:17.231Z,11.27
2018-04-16T21:24:18.535Z,11.97
2018-04-16T21:29:19.829Z,11.50
2018-04-16T21:34:21.906Z,11.80
2018-04-16T21:39:23.209Z,12.37
2018-04-16T21:44:24.525Z,12.10
2018-04-16T21:49:25.865Z,11.23
2018-04-16T21:54:27.200Z,12.70
2018-04-16T21:59:29.270Z,13.40
2018-04-16T22:04:31.377Z,13.00
2018-04-16T22:09:32.735Z,13.70
2018-04-16T22:14:34.073Z,13.80
2018-04-16T22:19:35.449Z,11.33
2018-04-16T22:24:36.763Z,12.53
2018-04-16T22:29:38.069Z,11.77
2018-04-16T22:34:39.438Z,11.40
2018-04-16T22:39:41.508Z,10.90
2018-04-16T22:44:42.845Z,11.90
2018-04-16T22:49:44.170Z,11.00
2018-04-16T22:54:45.477Z,12.17
2018-04-16T22:59:46.793Z,13.73
2018-04-16T23:04:48.101Z,11.63
2018-04-16T23:09:49.401Z,10.83
2018-04-16T23:14:50.694Z,11.30
2018-04-16T23:19:51.991Z,10.10
2018-04-16T23:24:53.325Z,10.33
2018-04-16T23:29:54.633Z,12.10
2018-04-16T23:34:56.677Z,9.70
2018-04-16T23:39:58.026Z,11.23
2018-04-16T23:44:59.345Z,11.20
2018-04-16T23:50:00.647Z,11.97
2018-04-16T23:55:01.985Z,11.20
